createdAt,value
2022-11-24T12:01:10.858Z,14.27
2022-11-24T12:04:43.734Z,13.02
2022-11-24T12:08:20.677Z,10.80
2022-11-24T12:11:34.953Z,11.65
2022-11-24T12:14:58.246Z,13.40
2022-11-24T12:18:00.030Z,12.27
2022-11-24T12:21:26.273Z,16.52
2022-11-24T12:24:31.321Z,16.20
2022-11-24T12:27:50.366Z,14.73
2022-11-24T12:31:05.921Z,13.90
2022-11-24T12:34:20.039Z,13.88
2022-11-24T12:37:49.200Z,19.33
2022-11-24T12:41:39.581Z,16.13
2022-11-24T12:44:43.863Z,14.52
2022-11-24T12:47:46.690Z,13.68
2022-11-24T12:50:52.026Z,15.43
2022-11-24T12:53:58.041Z,18.45
2022-11-24T12:57:10.275Z,18.67
2022-11-24T13:00:29.639Z,20.05
2022-11-24T13:03:37.172Z,18.90
2022-11-24T13:06:49.391Z,24.08
2022-11-24T13:10:40.070Z,26.23
2022-11-24T13:17:43.523Z,24.23
2022-11-24T13:20:52.058Z,23.65
2022-11-24T13:24:02.644Z,26.85
2022-11-24T13:27:16.431Z,23.90
2022-11-24T13:30:33.712Z,18.17
2022-11-24T13:33:36.303Z,24.00
2022-11-24T13:36:53.319Z,23.90
2022-11-24T13:40:00.270Z,18.75
2022-11-24T13:43:05.018Z,15.73
2022-11-24T13:46:10.074Z,16.75
2022-11-24T13:49:20.877Z,14.90
2022-11-24T13:52:49.531Z,15.52
2022-11-24T13:56:03.351Z,18.30
2022-11-24T13:59:19.182Z,18.38
2022-11-24T14:02:23.734Z,39.63
2022-11-24T14:05:39.339Z,29.13
2022-11-24T14:08:46.547Z,17.98
2022-11-24T14:12:08.576Z,15.45
2022-11-24T14:15:23.915Z,17.95
2022-11-24T14:18:26.260Z,17.83
2022-11-24T14:21:35.903Z,23.98
2022-11-24T14:24:41.533Z,16.08
2022-11-24T14:27:46.593Z,16.95
2022-11-24T14:30:48.682Z,17.52
2022-11-24T14:34:06.772Z,17.03
2022-11-24T14:37:12.067Z,15.30
2022-11-24T14:40:47.099Z,17.13
2022-11-24T14:43:50.329Z,16.98
2022-11-24T14:47:02.862Z,22.15
2022-11-24T14:50:19.312Z,22.63
2022-11-24T14:53:26.315Z,21.38
2022-11-24T14:56:40.006Z,18.42
2022-11-24T14:59:42.053Z,17.52
2022-11-24T15:02:55.665Z,17.17
2022-11-24T15:06:03.393Z,19.67
2022-11-24T15:09:07.019Z,18.65
2022-11-24T15:12:29.361Z,19.73
2022-11-24T15:15:37.573Z,15.95
2022-11-24T15:18:50.347Z,15.20
2022-11-24T15:21:53.615Z,14.70
2022-11-24T15:24:55.586Z,14.63
2022-11-24T15:28:01.389Z,12.70
2022-11-24T15:31:06.955Z,16.55
2022-11-24T15:34:13.792Z,14.57
2022-11-24T15:37:15.730Z,17.88
2022-11-24T15:40:18.655Z,19.58
2022-11-24T15:46:43.205Z,15.38
2022-11-24T15:49:47.008Z,16.17
2022-11-24T15:52:52.246Z,18.45
2022-11-24T15:55:56.773Z,17.20
2022-11-24T15:59:00.051Z,25.45
2022-11-24T16:02:01.908Z,16.15
2022-11-24T16:05:08.348Z,14.95
2022-11-24T16:08:17.898Z,15.82
2022-11-24T16:11:22.919Z,19.00
2022-11-24T16:14:26.610Z,17.80
2022-11-24T16:17:32.436Z,17.05
2022-11-24T16:20:37.719Z,14.75
2022-11-24T16:23:41.049Z,13.93
2022-11-24T16:26:43.859Z,16.80
2022-11-24T16:29:46.777Z,19.42
2022-11-24T16:33:11.004Z,19.85
2022-11-24T16:36:17.344Z,15.85
2022-11-24T16:42:40.127Z,14.45
2022-11-24T16:45:45.471Z,14.45
2022-11-24T16:48:49.887Z,12.40
2022-11-24T16:51:55.170Z,13.40
2022-11-24T16:54:59.012Z,12.70
2022-11-24T16:58:05.040Z,11.70
2022-11-24T17:01:13.989Z,11.52
2022-11-24T17:04:19.376Z,16.08
2022-11-24T17:07:25.579Z,11.40
2022-11-24T17:10:28.040Z,10.20
2022-11-24T17:13:33.858Z,11.00
2022-11-24T17:16:43.925Z,10.77
2022-11-24T17:19:48.847Z,10.30
2022-11-24T17:22:56.743Z,10.32
2022-11-24T17:26:05.823Z,9.38
2022-11-24T17:29:10.899Z,10.55
2022-11-24T17:32:15.194Z,9.50
2022-11-24T17:35:18.848Z,7.95
2022-11-24T17:38:31.254Z,15.50
2022-11-24T17:41:35.398Z,12.63
2022-11-24T17:44:37.913Z,14.60
2022-11-24T17:47:42.785Z,13.02
2022-11-24T17:50:45.953Z,12.52
2022-11-24T17:53:49.949Z,15.23
2022-11-24T17:56:54.726Z,10.85
2022-11-24T17:59:57.932Z,17.98
2022-11-24T18:03:01.347Z,13.53
2022-11-24T18:06:15.226Z,12.15
2022-11-24T18:09:18.621Z,9.02
2022-11-24T18:12:24.044Z,8.50
2022-11-24T18:15:26.655Z,8.70
2022-11-24T18:18:29.080Z,8.10
2022-11-24T18:24:34.314Z,6.60
2022-11-24T18:33:44.031Z,6.82
2022-11-24T18:36:52.709Z,6.78
2022-11-24T18:39:57.525Z,9.30
2022-11-24T18:43:03.056Z,8.20
2022-11-24T18:46:14.625Z,9.75
2022-11-24T18:49:16.794Z,9.18
2022-11-24T18:52:21.355Z,8.18
2022-11-24T18:55:24.847Z,7.57
2022-11-24T18:58:35.979Z,8.00
2022-11-24T19:01:39.906Z,9.20
2022-11-24T19:07:50.344Z,7.82
2022-11-24T19:10:55.350Z,7.25
2022-11-24T19:14:01.258Z,6.90
2022-11-24T19:17:07.813Z,6.63
2022-11-24T19:20:14.497Z,6.97
2022-11-24T19:23:19.998Z,7.40
2022-11-24T19:26:23.924Z,6.28
2022-11-24T19:29:28.428Z,6.93
2022-11-24T19:32:33.159Z,7.45
2022-11-24T19:35:36.993Z,7.20
2022-11-24T19:38:41.204Z,7.15
2022-11-24T19:41:47.561Z,7.18
2022-11-24T19:44:56.422Z,8.57
2022-11-24T19:47:59.301Z,7.38
2022-11-24T19:51:08.344Z,7.82
2022-11-24T19:54:14.496Z,7.90
2022-11-24T19:57:17.404Z,7.80
2022-11-24T20:00:30.673Z,8.07
2022-11-24T20:03:36.261Z,7.05
2022-11-24T20:06:43.235Z,8.02
2022-11-24T20:09:45.516Z,7.05
2022-11-24T20:12:48.146Z,7.70
2022-11-24T20:19:07.893Z,7.72
2022-11-24T20:22:10.746Z,6.45
2022-11-24T20:25:13.613Z,7.80
2022-11-24T20:28:20.491Z,7.30
2022-11-24T20:31:30.792Z,7.00
2022-11-24T20:34:35.901Z,6.55
2022-11-24T20:37:39.119Z,8.00
2022-11-24T20:43:47.022Z,8.27
2022-11-24T20:46:49.935Z,7.57
2022-11-24T20:49:53.465Z,7.20
2022-11-24T20:52:59.714Z,6.88
2022-11-24T20:56:13.528Z,7.07
2022-11-24T20:59:24.650Z,6.60
2022-11-24T21:02:28.177Z,7.85
2022-11-24T21:05:30.777Z,7.40
2022-11-24T21:08:34.377Z,7.55
2022-11-24T21:11:40.433Z,7.25
2022-11-24T21:14:42.285Z,7.38
2022-11-24T21:17:44.673Z,7.47
2022-11-24T21:20:47.718Z,7.60
2022-11-24T21:23:49.717Z,6.90
2022-11-24T21:26:52.981Z,7.23
2022-11-24T21:29:55.107Z,7.45
2022-11-24T21:32:56.975Z,7.20
2022-11-24T21:36:06.108Z,6.60
2022-11-24T21:39:14.998Z,6.90
2022-11-24T21:42:16.910Z,6.93
2022-11-24T21:45:18.707Z,6.38
2022-11-24T21:48:20.671Z,7.03
2022-11-24T21:51:22.575Z,7.13
2022-11-24T21:54:24.567Z,7.55
2022-11-24T21:57:28.149Z,7.10
2022-11-24T22:00:30.010Z,7.22
2022-11-24T22:03:32.886Z,7.68
2022-11-24T22:06:34.981Z,7.72
2022-11-24T22:09:36.823Z,6.97
2022-11-24T22:12:38.669Z,7.45
2022-11-24T22:15:40.618Z,7.50
2022-11-24T22:18:43.778Z,7.65
2022-11-24T22:21:45.751Z,7.10
2022-11-24T22:24:47.540Z,7.05
2022-11-24T22:27:49.956Z,6.88
2022-11-24T22:30:51.911Z,7.90
2022-11-24T22:33:54.618Z,7.78
2022-11-24T22:36:56.556Z,6.95
2022-11-24T22:39:58.544Z,6.93
2022-11-24T22:43:00.449Z,7.30
2022-11-24T22:46:07.371Z,7.93
2022-11-24T22:49:10.094Z,7.53
2022-11-24T22:52:14.103Z,7.65
2022-11-24T22:55:16.498Z,7.82
2022-11-24T22:58:18.314Z,7.68
2022-11-24T23:01:22.745Z,7.72
2022-11-24T23:04:24.724Z,7.65
2022-11-24T23:07:26.736Z,8.20
2022-11-24T23:10:28.681Z,8.10
2022-11-24T23:13:30.862Z,7.85
2022-11-24T23:16:32.765Z,8.00
2022-11-24T23:19:34.697Z,7.90
2022-11-24T23:22:36.576Z,7.53
2022-11-24T23:25:38.416Z,8.00
2022-11-24T23:28:40.842Z,7.40
2022-11-24T23:31:42.805Z,8.35
2022-11-24T23:34:44.662Z,8.63
2022-11-24T23:38:06.921Z,7.38
2022-11-24T23:41:15.454Z,8.60
2022-11-24T23:44:17.321Z,7.78
2022-11-24T23:47:19.192Z,7.22
2022-11-24T23:50:21.123Z,8.00
2022-11-24T23:53:23.318Z,7.47
2022-11-24T23:56:33.249Z,8.40
2022-11-24T23:59:35.346Z,7.82
